createdAt,value
2016-10-03T00:00:00.820Z,0
2016-10-03T00:01:00.926Z,0
2016-10-03T00:02:00.904Z,0
2016-10-03T00:03:00.937Z,0
2016-10-03T00:04:00.977Z,0
2016-10-03T00:05:00.840Z,0
2016-10-03T00:06:00.864Z,0
2016-10-03T00:07:00.882Z,0
2016-10-03T00:08:00.847Z,0
2016-10-03T00:09:00.826Z,0
2016-10-03T00:10:00.846Z,0
2016-10-03T00:11:00.850Z,0
2016-10-03T00:12:00.904Z,0
2016-10-03T00:13:00.863Z,0
2016-10-03T00:14:00.863Z,0
2016-10-03T00:15:00.809Z,0
2016-10-03T00:16:00.866Z,0
2016-10-03T00:17:00.822Z,0
2016-10-03T00:18:00.804Z,0
2016-10-03T00:19:00.888Z,0
2016-10-03T00:20:00.865Z,0
2016-10-03T00:21:00.797Z,0
2016-10-03T00:22:00.866Z,0
2016-10-03T00:23:00.841Z,0
2016-10-03T00:24:00.818Z,0
2016-10-03T00:25:00.804Z,0
2016-10-03T00:26:00.869Z,0
2016-10-03T00:27:00.837Z,0
2016-10-03T00:28:00.883Z,0
2016-10-03T00:29:00.841Z,0
2016-10-03T00:30:00.889Z,0
2016-10-03T00:31:01.056Z,0
2016-10-03T00:32:00.959Z,0
2016-10-03T00:33:00.920Z,0
2016-10-03T00:34:00.837Z,0
2016-10-03T00:35:00.871Z,0
2016-10-03T00:36:00.852Z,0
2016-10-03T00:37:00.849Z,0
2016-10-03T00:38:00.891Z,0
2016-10-03T00:39:00.858Z,0
2016-10-03T00:40:00.908Z,0
2016-10-03T00:41:00.834Z,0
2016-10-03T00:42:01.630Z,0
2016-10-03T00:43:00.848Z,0
2016-10-03T00:44:00.852Z,0
2016-10-03T00:45:00.857Z,0
2016-10-03T00:46:00.862Z,0
2016-10-03T00:47:00.858Z,0
2016-10-03T00:48:00.877Z,0
2016-10-03T00:49:00.862Z,0
2016-10-03T00:50:00.886Z,0
2016-10-03T00:51:00.860Z,0
2016-10-03T00:52:00.899Z,0
2016-10-03T00:53:00.858Z,0
2016-10-03T00:54:00.895Z,0
2016-10-03T00:55:00.869Z,0
2016-10-03T00:56:00.868Z,0
2016-10-03T00:57:00.863Z,0
2016-10-03T00:58:00.850Z,0
2016-10-03T00:59:00.801Z,0
2016-10-03T01:00:00.866Z,0
2016-10-03T01:01:00.844Z,0
2016-10-03T01:02:00.895Z,0
2016-10-03T01:03:00.873Z,0
2016-10-03T01:04:00.820Z,0
2016-10-03T01:05:00.899Z,0
2016-10-03T01:06:00.863Z,0
2016-10-03T01:07:00.859Z,0
2016-10-03T01:08:00.874Z,0
2016-10-03T01:09:00.818Z,0
2016-10-03T01:10:00.875Z,0
2016-10-03T01:11:02.049Z,0
2016-10-03T01:12:00.949Z,0
2016-10-03T01:13:01.045Z,0
2016-10-03T01:14:01.129Z,0
2016-10-03T01:15:01.307Z,0
2016-10-03T01:16:01.623Z,0
2016-10-03T01:17:01.444Z,0
2016-10-03T01:18:00.997Z,0
2016-10-03T01:19:00.930Z,0
2016-10-03T01:20:00.874Z,0
2016-10-03T01:21:00.857Z,0
2016-10-03T01:22:00.886Z,0
2016-10-03T01:23:00.872Z,0
2016-10-03T01:24:00.849Z,0
2016-10-03T01:25:00.859Z,0
2016-10-03T01:26:00.837Z,0
2016-10-03T01:27:00.887Z,0
2016-10-03T01:28:00.863Z,0
2016-10-03T01:29:00.927Z,0
2016-10-03T01:30:00.864Z,0
2016-10-03T01:31:00.885Z,0
2016-10-03T01:32:00.905Z,0
2016-10-03T01:33:00.928Z,0
2016-10-03T01:34:00.914Z,0
2016-10-03T01:35:00.910Z,0
2016-10-03T01:36:00.897Z,0
2016-10-03T01:37:00.906Z,0
2016-10-03T01:38:00.871Z,0
2016-10-03T01:39:00.874Z,0
2016-10-03T01:40:00.891Z,0
2016-10-03T01:41:00.873Z,0
2016-10-03T01:42:00.897Z,0
2016-10-03T01:43:00.884Z,0
2016-10-03T01:44:00.910Z,0
2016-10-03T01:45:00.884Z,0
2016-10-03T01:46:00.893Z,0
2016-10-03T01:47:00.885Z,0
2016-10-03T01:48:00.887Z,0
2016-10-03T01:49:00.898Z,0
2016-10-03T01:50:00.892Z,0
2016-10-03T01:51:01.461Z,0
2016-10-03T01:52:00.924Z,0
2016-10-03T01:53:00.895Z,0
2016-10-03T01:54:00.922Z,0
2016-10-03T01:55:00.917Z,0
2016-10-03T01:56:00.942Z,0
2016-10-03T01:57:00.964Z,0
2016-10-03T01:58:00.963Z,0
2016-10-03T01:59:00.906Z,0
2016-10-03T02:00:00.955Z,0
2016-10-03T02:01:00.941Z,0
2016-10-03T02:02:00.924Z,0
2016-10-03T02:03:00.907Z,0
2016-10-03T02:04:00.871Z,0
2016-10-03T02:05:00.939Z,0
2016-10-03T02:06:00.941Z,0
2016-10-03T02:07:00.935Z,0
2016-10-03T02:08:00.953Z,0
2016-10-03T02:09:00.877Z,0
2016-10-03T02:10:00.884Z,0
2016-10-03T02:11:00.905Z,0
2016-10-03T02:12:00.933Z,0
2016-10-03T02:13:00.900Z,0
2016-10-03T02:14:00.922Z,0
2016-10-03T02:15:01.001Z,0
2016-10-03T02:16:00.936Z,0
2016-10-03T02:17:01.011Z,0
2016-10-03T02:18:00.955Z,0
2016-10-03T02:19:00.909Z,0
2016-10-03T02:20:00.962Z,0
2016-10-03T02:21:00.938Z,0
2016-10-03T02:22:01.000Z,0
2016-10-03T02:23:00.982Z,0
2016-10-03T02:24:00.989Z,0
2016-10-03T02:25:00.989Z,0
2016-10-03T02:26:00.925Z,0
2016-10-03T02:27:00.945Z,0
2016-10-03T02:28:00.957Z,0
2016-10-03T02:29:00.919Z,0
2016-10-03T02:30:00.915Z,0
2016-10-03T02:31:00.931Z,0
2016-10-03T02:32:00.961Z,0
2016-10-03T02:33:00.901Z,0
2016-10-03T02:34:00.969Z,0
2016-10-03T02:35:00.953Z,0
2016-10-03T02:36:00.935Z,0
2016-10-03T02:37:00.939Z,0
2016-10-03T02:38:00.914Z,0
2016-10-03T02:39:00.937Z,0
2016-10-03T02:40:00.932Z,0
2016-10-03T02:41:00.916Z,0
2016-10-03T02:42:00.940Z,0
2016-10-03T02:43:00.925Z,0
2016-10-03T02:44:00.921Z,0
2016-10-03T02:45:00.936Z,0
2016-10-03T02:46:00.949Z,0
2016-10-03T02:47:00.925Z,0
2016-10-03T02:48:00.947Z,0
2016-10-03T02:49:00.930Z,0
2016-10-03T02:50:00.936Z,0
2016-10-03T02:51:00.941Z,0
2016-10-03T02:52:00.977Z,0
2016-10-03T02:53:00.927Z,0
2016-10-03T02:54:00.972Z,0
2016-10-03T02:55:00.956Z,0
2016-10-03T02:56:00.952Z,0
2016-10-03T02:57:00.950Z,0
2016-10-03T02:58:00.939Z,0
2016-10-03T02:59:00.932Z,0
2016-10-03T03:00:00.961Z,0
2016-10-03T03:01:00.962Z,0
2016-10-03T03:02:01.045Z,0
2016-10-03T03:03:00.960Z,0
2016-10-03T03:04:00.952Z,0
2016-10-03T03:05:00.951Z,0
2016-10-03T03:06:00.945Z,0
2016-10-03T03:07:00.967Z,0
2016-10-03T03:08:00.916Z,0
2016-10-03T03:09:00.950Z,0
2016-10-03T03:10:00.957Z,0
2016-10-03T03:11:00.976Z,0
2016-10-03T03:12:01.006Z,0
2016-10-03T03:13:00.980Z,0
2016-10-03T03:14:00.952Z,0
2016-10-03T03:15:00.960Z,0
2016-10-03T03:16:00.942Z,0
2016-10-03T03:17:00.992Z,0
2016-10-03T03:18:01.024Z,0
2016-10-03T03:19:00.973Z,0
2016-10-03T03:20:00.977Z,0
2016-10-03T03:21:00.961Z,0
2016-10-03T03:22:00.963Z,0
2016-10-03T03:23:01.008Z,0
2016-10-03T03:24:00.992Z,0
2016-10-03T03:25:00.961Z,0
2016-10-03T03:26:00.970Z,0
2016-10-03T03:27:00.989Z,0
2016-10-03T03:28:00.973Z,0
2016-10-03T03:29:00.959Z,0
2016-10-03T03:30:00.966Z,0
2016-10-03T03:31:00.971Z,0
2016-10-03T03:32:01.020Z,0
2016-10-03T03:33:00.959Z,0
2016-10-03T03:34:00.961Z,0
2016-10-03T03:35:00.966Z,0
2016-10-03T03:36:00.966Z,0
2016-10-03T03:37:00.981Z,0
2016-10-03T03:38:00.955Z,0
2016-10-03T03:39:00.981Z,0
2016-10-03T03:40:00.985Z,0
2016-10-03T03:41:00.967Z,0
2016-10-03T03:42:00.997Z,0
2016-10-03T03:43:00.947Z,0
2016-10-03T03:44:00.981Z,0
2016-10-03T03:45:00.973Z,0
2016-10-03T03:46:00.979Z,0
2016-10-03T03:47:00.986Z,0
2016-10-03T03:48:00.965Z,0
2016-10-03T03:49:00.959Z,0
2016-10-03T03:50:00.963Z,0
2016-10-03T03:51:00.983Z,0
2016-10-03T03:52:00.995Z,0
2016-10-03T03:53:00.986Z,0
2016-10-03T03:54:00.979Z,0
2016-10-03T03:55:00.992Z,0
2016-10-03T03:56:00.988Z,0
2016-10-03T03:57:00.984Z,0
2016-10-03T03:58:00.973Z,0
2016-10-03T03:59:00.981Z,0
2016-10-03T04:00:01.009Z,0
2016-10-03T04:01:01.008Z,0
2016-10-03T04:02:01.003Z,0
2016-10-03T04:03:01.002Z,0
2016-10-03T04:04:01.001Z,0
2016-10-03T04:05:01.008Z,0
2016-10-03T04:06:01.027Z,0
2016-10-03T04:07:00.998Z,0
2016-10-03T04:08:00.985Z,0
2016-10-03T04:09:01.015Z,0
2016-10-03T04:10:01.020Z,0
2016-10-03T04:11:00.991Z,0
2016-10-03T04:12:01.033Z,0
2016-10-03T04:13:01.005Z,0
2016-10-03T04:14:01.043Z,0
2016-10-03T04:15:01.036Z,0
2016-10-03T04:16:01.076Z,0
2016-10-03T04:17:01.112Z,0
2016-10-03T04:18:01.008Z,0
2016-10-03T04:19:01.040Z,0
2016-10-03T04:20:01.043Z,0
2016-10-03T04:21:01.035Z,0
2016-10-03T04:22:00.998Z,0
2016-10-03T04:23:01.040Z,0
2016-10-03T04:24:00.986Z,0
2016-10-03T04:25:01.050Z,0
2016-10-03T04:26:01.033Z,0
2016-10-03T04:27:01.032Z,0
2016-10-03T04:28:00.992Z,0
2016-10-03T04:29:01.006Z,0
2016-10-03T04:30:01.033Z,0
2016-10-03T04:31:01.028Z,0
2016-10-03T04:32:01.061Z,0
2016-10-03T04:33:01.002Z,0
2016-10-03T04:34:01.015Z,0
2016-10-03T04:35:01.054Z,0
2016-10-03T04:36:01.018Z,0
2016-10-03T04:37:01.041Z,0
2016-10-03T04:38:01.019Z,0
2016-10-03T04:39:01.051Z,0
2016-10-03T04:40:00.991Z,0
2016-10-03T04:41:01.022Z,0
2016-10-03T04:42:01.012Z,0
2016-10-03T04:43:01.007Z,0
2016-10-03T04:44:01.013Z,0
2016-10-03T04:45:01.055Z,0
2016-10-03T04:46:01.026Z,0
2016-10-03T04:47:01.081Z,0
2016-10-03T04:48:01.036Z,0
2016-10-03T04:49:01.083Z,0
2016-10-03T04:50:01.007Z,0
2016-10-03T04:51:01.048Z,0
2016-10-03T04:52:01.055Z,0
2016-10-03T04:53:01.039Z,0
2016-10-03T04:54:01.112Z,0
2016-10-03T04:55:01.070Z,0
2016-10-03T04:56:01.035Z,0
2016-10-03T04:57:01.060Z,0
2016-10-03T04:58:01.035Z,0
2016-10-03T04:59:01.025Z,0
2016-10-03T05:00:01.015Z,0
2016-10-03T05:01:01.006Z,0
2016-10-03T05:02:01.059Z,0
2016-10-03T05:03:01.034Z,0
2016-10-03T05:04:01.085Z,0
2016-10-03T05:05:01.034Z,0
2016-10-03T05:06:01.055Z,0
2016-10-03T05:07:01.047Z,0
2016-10-03T05:08:01.044Z,0
2016-10-03T05:09:01.057Z,0
2016-10-03T05:10:01.070Z,0
2016-10-03T05:11:01.078Z,0
2016-10-03T05:12:01.061Z,0
2016-10-03T05:13:01.060Z,0
2016-10-03T05:14:01.067Z,0
2016-10-03T05:15:01.076Z,0
2016-10-03T05:16:01.071Z,0
2016-10-03T05:17:01.094Z,0
2016-10-03T05:18:01.079Z,0
2016-10-03T05:19:01.123Z,0
2016-10-03T05:20:01.075Z,0
2016-10-03T05:21:01.050Z,0
2016-10-03T05:22:01.097Z,0
2016-10-03T05:23:01.042Z,0
2016-10-03T05:24:01.119Z,0
2016-10-03T05:25:01.085Z,0
2016-10-03T05:26:01.049Z,0
2016-10-03T05:27:01.116Z,0
2016-10-03T05:28:01.052Z,0
2016-10-03T05:29:01.124Z,0
2016-10-03T05:30:01.071Z,0
2016-10-03T05:31:01.073Z,0
2016-10-03T05:32:01.097Z,0
2016-10-03T05:33:01.048Z,0
2016-10-03T05:34:01.044Z,0
2016-10-03T05:35:01.077Z,0
2016-10-03T05:36:01.062Z,5
2016-10-03T05:37:01.078Z,5
2016-10-03T05:38:01.053Z,5
2016-10-03T05:39:01.128Z,5
2016-10-03T05:40:01.112Z,5
2016-10-03T05:41:01.116Z,5
2016-10-03T05:42:01.197Z,5
2016-10-03T05:43:01.177Z,5
2016-10-03T05:44:01.109Z,10
2016-10-03T05:45:01.160Z,10
2016-10-03T05:46:01.137Z,10
2016-10-03T05:47:01.167Z,10
2016-10-03T05:48:01.108Z,15
2016-10-03T05:49:01.115Z,15
2016-10-03T05:50:01.656Z,15
2016-10-03T05:51:01.076Z,15
2016-10-03T05:52:01.127Z,20
2016-10-03T05:53:01.069Z,20
2016-10-03T05:54:01.211Z,20
2016-10-03T05:55:02.124Z,20
2016-10-03T05:56:01.185Z,20
2016-10-03T05:57:01.469Z,20
2016-10-03T05:58:01.387Z,20
2016-10-03T05:59:01.594Z,20
2016-10-03T06:00:01.267Z,20
2016-10-03T06:01:01.545Z,20
2016-10-03T06:02:01.430Z,25
2016-10-03T06:03:01.251Z,25
2016-10-03T06:04:01.136Z,25
2016-10-03T06:05:01.775Z,30
2016-10-03T06:06:01.096Z,30
2016-10-03T06:07:01.113Z,35
2016-10-03T06:08:01.279Z,40
2016-10-03T06:09:01.212Z,50
2016-10-03T06:10:01.085Z,50
2016-10-03T06:11:01.089Z,50
2016-10-03T06:12:01.126Z,50
2016-10-03T06:13:01.063Z,55
2016-10-03T06:14:01.061Z,55
2016-10-03T06:15:01.136Z,55
2016-10-03T06:16:01.085Z,50
2016-10-03T06:17:01.138Z,50
2016-10-03T06:18:01.106Z,45
2016-10-03T06:19:01.105Z,50
2016-10-03T06:20:01.070Z,50
2016-10-03T06:21:01.077Z,50
2016-10-03T06:22:01.106Z,45
2016-10-03T06:23:01.067Z,50
2016-10-03T06:24:01.072Z,50
2016-10-03T06:25:01.090Z,50
2016-10-03T06:26:01.088Z,50
2016-10-03T06:27:01.100Z,55
2016-10-03T06:28:01.062Z,60
2016-10-03T06:29:01.109Z,60
2016-10-03T06:30:01.073Z,60
2016-10-03T06:31:01.104Z,60
2016-10-03T06:32:01.125Z,60
2016-10-03T06:33:01.120Z,65
2016-10-03T06:34:01.069Z,65
2016-10-03T06:35:01.106Z,75
2016-10-03T06:36:01.087Z,75
2016-10-03T06:37:01.109Z,70
2016-10-03T06:38:01.164Z,70
2016-10-03T06:39:01.103Z,70
2016-10-03T06:40:01.104Z,70
2016-10-03T06:41:01.095Z,70
2016-10-03T06:42:01.115Z,80
2016-10-03T06:43:01.092Z,85
2016-10-03T06:44:01.151Z,90
2016-10-03T06:45:01.135Z,95
2016-10-03T06:46:01.151Z,95
2016-10-03T06:47:01.171Z,95
2016-10-03T06:48:01.178Z,95
2016-10-03T06:49:01.136Z,100
2016-10-03T06:50:01.126Z,105
2016-10-03T06:51:01.183Z,110
2016-10-03T06:52:02.107Z,110
2016-10-03T06:53:01.131Z,110
2016-10-03T06:54:01.173Z,110
2016-10-03T06:55:01.210Z,115
2016-10-03T06:56:01.166Z,115
2016-10-03T06:57:01.272Z,115
2016-10-03T06:58:01.172Z,110
2016-10-03T06:59:01.182Z,110
2016-10-03T07:00:01.174Z,105
2016-10-03T07:01:01.248Z,105
2016-10-03T07:02:01.169Z,110
2016-10-03T07:03:01.168Z,115
2016-10-03T07:04:01.217Z,125
2016-10-03T07:05:01.658Z,125
2016-10-03T07:06:05.379Z,115
2016-10-03T07:07:08.046Z,120
2016-10-03T07:08:02.208Z,125
2016-10-03T07:09:01.172Z,125
2016-10-03T07:10:01.135Z,130
2016-10-03T07:11:01.172Z,135
2016-10-03T07:12:01.233Z,135
2016-10-03T07:13:01.160Z,140
2016-10-03T07:14:01.236Z,140
2016-10-03T07:15:01.240Z,145
2016-10-03T07:16:01.184Z,145
2016-10-03T07:17:01.273Z,135
2016-10-03T07:18:01.199Z,125
2016-10-03T07:19:01.206Z,120
2016-10-03T07:20:01.197Z,110
2016-10-03T07:21:01.220Z,105
2016-10-03T07:22:01.215Z,105
2016-10-03T07:23:01.222Z,110
2016-10-03T07:24:13.781Z,115
2016-10-03T07:25:12.007Z,120
2016-10-03T07:26:13.641Z,135
2016-10-03T07:27:06.635Z,135
2016-10-03T07:28:08.719Z,125
2016-10-03T07:29:13.404Z,135
2016-10-03T07:30:14.070Z,150
2016-10-03T07:31:11.797Z,145
2016-10-03T07:32:13.530Z,155
2016-10-03T07:33:15.983Z,165
2016-10-03T07:34:14.368Z,195
2016-10-03T07:35:14.807Z,160
2016-10-03T07:36:14.454Z,90
2016-10-03T07:37:14.386Z,60
2016-10-03T07:38:14.889Z,60
2016-10-03T07:39:15.717Z,65
2016-10-03T07:40:15.637Z,95
2016-10-03T07:41:15.951Z,85
2016-10-03T07:42:15.510Z,75
2016-10-03T07:43:14.982Z,75
2016-10-03T07:44:08.618Z,80
2016-10-03T07:45:13.904Z,80
2016-10-03T07:46:14.149Z,75
2016-10-03T07:47:13.094Z,80
2016-10-03T07:48:13.999Z,120
2016-10-03T07:49:01.852Z,145
2016-10-03T07:50:15.057Z,185
2016-10-03T07:51:09.788Z,205
2016-10-03T07:52:02.488Z,210
2016-10-03T07:53:01.207Z,185
2016-10-03T07:54:01.565Z,185
2016-10-03T07:55:01.204Z,195
2016-10-03T07:56:01.294Z,170
2016-10-03T07:57:01.158Z,150
2016-10-03T07:58:01.197Z,150
2016-10-03T07:59:01.204Z,140
2016-10-03T08:00:01.275Z,140
2016-10-03T08:01:01.249Z,155
2016-10-03T08:02:01.254Z,160
2016-10-03T08:03:01.240Z,170
2016-10-03T08:04:01.262Z,150
2016-10-03T08:05:01.232Z,155
2016-10-03T08:06:01.183Z,160
2016-10-03T08:07:01.193Z,170
2016-10-03T08:08:01.228Z,175
2016-10-03T08:09:01.192Z,185
2016-10-03T08:10:01.205Z,195
2016-10-03T08:11:01.211Z,185
2016-10-03T08:12:01.216Z,180
2016-10-03T08:13:01.213Z,185
2016-10-03T08:14:01.179Z,175
2016-10-03T08:15:01.292Z,190
2016-10-03T08:16:01.213Z,220
2016-10-03T08:17:01.203Z,205
2016-10-03T08:18:01.253Z,180
2016-10-03T08:19:01.320Z,185
2016-10-03T08:20:01.189Z,205
2016-10-03T08:21:02.220Z,170
2016-10-03T08:22:01.348Z,205
2016-10-03T08:23:01.256Z,255
2016-10-03T08:24:01.294Z,220
2016-10-03T08:25:01.236Z,220
2016-10-03T08:26:03.450Z,190
2016-10-03T08:27:01.264Z,155
2016-10-03T08:28:01.259Z,175
2016-10-03T08:29:01.995Z,210
2016-10-03T08:30:01.405Z,185
2016-10-03T08:31:01.272Z,190
2016-10-03T08:32:01.226Z,185
2016-10-03T08:33:01.196Z,145
2016-10-03T08:34:01.216Z,120
2016-10-03T08:35:01.239Z,145
2016-10-03T08:36:01.241Z,170
2016-10-03T08:37:01.226Z,195
2016-10-03T08:38:01.334Z,180
2016-10-03T08:39:01.193Z,150
2016-10-03T08:40:01.258Z,180
2016-10-03T08:41:01.278Z,150
2016-10-03T08:42:01.286Z,150
2016-10-03T08:43:01.218Z,140
2016-10-03T08:44:03.431Z,115
2016-10-03T08:45:02.399Z,120
2016-10-03T08:46:01.453Z,140
2016-10-03T08:47:01.238Z,175
2016-10-03T08:48:01.246Z,180
2016-10-03T08:49:01.487Z,155
2016-10-03T08:50:01.302Z,190
2016-10-03T08:51:01.238Z,215
2016-10-03T08:52:01.229Z,225
2016-10-03T08:53:01.223Z,205
2016-10-03T08:54:01.457Z,230
2016-10-03T08:55:01.233Z,265
2016-10-03T08:56:01.680Z,265
2016-10-03T08:57:01.579Z,260
2016-10-03T08:58:01.287Z,250
2016-10-03T08:59:01.364Z,270
2016-10-03T09:00:01.239Z,295
2016-10-03T09:01:01.259Z,275
2016-10-03T09:02:01.241Z,220
2016-10-03T09:03:01.216Z,210
2016-10-03T09:04:01.236Z,210
2016-10-03T09:05:01.237Z,225
2016-10-03T09:06:01.251Z,230
2016-10-03T09:07:01.238Z,195
2016-10-03T09:08:01.854Z,180
2016-10-03T09:09:17.393Z,195
2016-10-03T09:10:20.821Z,240
2016-10-03T09:11:01.517Z,295
2016-10-03T09:12:11.964Z,325
2016-10-03T09:14:17.453Z,255
2016-10-03T09:16:30.882Z,230
2016-10-03T09:17:09.983Z,245
2016-10-03T09:18:04.340Z,195
2016-10-03T09:20:22.788Z,285
2016-10-03T09:20:35.199Z,285
2016-10-03T09:21:35.565Z,265
2016-10-03T09:22:37.661Z,260
2016-10-03T09:23:36.974Z,270
2016-10-03T09:24:49.007Z,220
2016-10-03T09:25:35.851Z,235
2016-10-03T09:26:33.849Z,310
2016-10-03T09:27:33.876Z,270
2016-10-03T09:28:33.871Z,275
2016-10-03T09:29:34.150Z,240
2016-10-03T09:30:34.192Z,295
2016-10-03T09:31:33.932Z,295
2016-10-03T09:32:33.926Z,260
2016-10-03T09:33:34.183Z,195
2016-10-03T09:34:33.892Z,230
2016-10-03T09:35:34.714Z,210
2016-10-03T09:36:33.862Z,215
2016-10-03T09:37:33.908Z,225
2016-10-03T09:38:35.216Z,190
2016-10-03T09:39:34.533Z,195
2016-10-03T09:40:33.880Z,240
2016-10-03T09:41:33.940Z,310
2016-10-03T09:42:33.909Z,280
2016-10-03T09:43:33.913Z,275
2016-10-03T09:44:34.064Z,285
2016-10-03T09:45:33.907Z,270
2016-10-03T09:46:33.963Z,240
2016-10-03T09:47:34.951Z,260
2016-10-03T09:48:33.907Z,215
2016-10-03T09:49:33.956Z,215
2016-10-03T09:50:33.910Z,220
2016-10-03T09:51:33.898Z,270
2016-10-03T09:52:33.989Z,285
2016-10-03T09:53:33.894Z,260
2016-10-03T09:54:33.944Z,280
2016-10-03T09:55:37.449Z,250
2016-10-03T09:56:33.941Z,235
2016-10-03T09:57:33.905Z,225
2016-10-03T09:58:33.913Z,235
2016-10-03T09:59:47.585Z,270
2016-10-03T10:00:44.033Z,255
2016-10-03T10:01:46.546Z,205
2016-10-03T10:02:48.142Z,205
2016-10-03T10:03:48.231Z,215
2016-10-03T10:04:34.358Z,245
2016-10-03T10:05:34.207Z,285
2016-10-03T10:06:33.928Z,285
2016-10-03T10:07:33.935Z,320
2016-10-03T10:08:34.067Z,315
2016-10-03T10:09:33.941Z,310
2016-10-03T10:10:34.326Z,315
2016-10-03T10:11:33.974Z,265
2016-10-03T10:12:33.934Z,200
2016-10-03T10:13:34.020Z,190
2016-10-03T10:14:33.930Z,195
2016-10-03T10:15:33.943Z,200
2016-10-03T10:16:33.906Z,230
2016-10-03T10:17:34.064Z,265
2016-10-03T10:18:33.941Z,300
2016-10-03T10:19:33.931Z,310
2016-10-03T10:20:33.894Z,295
2016-10-03T10:21:34.018Z,270
2016-10-03T10:22:34.086Z,250
2016-10-03T10:23:33.959Z,255
2016-10-03T10:24:34.156Z,230
2016-10-03T10:25:33.927Z,175
2016-10-03T10:26:33.920Z,150
2016-10-03T10:27:33.908Z,145
2016-10-03T10:28:34.255Z,170
2016-10-03T10:29:34.009Z,210
2016-10-03T10:30:33.957Z,255
2016-10-03T10:31:33.915Z,245
2016-10-03T10:32:33.929Z,220
2016-10-03T10:33:33.922Z,185
2016-10-03T10:34:33.980Z,160
2016-10-03T10:35:33.919Z,160
2016-10-03T10:36:33.955Z,170
2016-10-03T10:37:33.916Z,195
2016-10-03T10:38:34.005Z,210
2016-10-03T10:39:34.013Z,210
2016-10-03T10:40:33.959Z,215
2016-10-03T10:41:33.960Z,255
2016-10-03T10:42:33.982Z,275
2016-10-03T10:43:34.056Z,250
2016-10-03T10:44:34.292Z,215
2016-10-03T10:45:33.970Z,180
2016-10-03T10:46:34.007Z,160
2016-10-03T10:47:34.102Z,140
2016-10-03T10:48:34.002Z,135
2016-10-03T10:49:34.334Z,130
2016-10-03T10:50:33.962Z,135
2016-10-03T10:51:34.004Z,145
2016-10-03T10:52:33.964Z,155
2016-10-03T10:53:33.947Z,180
2016-10-03T10:54:33.949Z,170
2016-10-03T10:55:33.970Z,160
2016-10-03T10:56:33.968Z,165
2016-10-03T10:57:34.834Z,180
2016-10-03T10:58:34.345Z,200
2016-10-03T10:59:33.973Z,185
2016-10-03T11:00:33.977Z,175
2016-10-03T11:01:33.951Z,175
2016-10-03T11:02:33.974Z,175
2016-10-03T11:03:34.004Z,155
2016-10-03T11:04:33.948Z,155
2016-10-03T11:05:33.964Z,160
2016-10-03T11:06:33.964Z,155
2016-10-03T11:07:33.960Z,150
2016-10-03T11:08:33.963Z,140
2016-10-03T11:09:34.051Z,145
2016-10-03T11:10:33.965Z,150
2016-10-03T11:11:33.942Z,150
2016-10-03T11:12:34.008Z,140
2016-10-03T11:13:33.947Z,135
2016-10-03T11:14:34.005Z,135
2016-10-03T11:15:34.011Z,140
2016-10-03T11:16:33.991Z,135
2016-10-03T11:17:33.967Z,145
2016-10-03T11:18:33.990Z,145
2016-10-03T11:19:33.939Z,135
2016-10-03T11:20:33.944Z,145
2016-10-03T11:21:33.951Z,150
2016-10-03T11:22:33.957Z,165
2016-10-03T11:23:33.966Z,175
2016-10-03T11:24:33.970Z,170
2016-10-03T11:25:33.978Z,175
2016-10-03T11:26:44.971Z,180
2016-10-03T11:27:49.629Z,175
2016-10-03T11:28:34.071Z,175
2016-10-03T11:29:40.293Z,175
2016-10-03T11:30:44.875Z,185
2016-10-03T11:31:33.991Z,195
2016-10-03T11:32:33.975Z,190
2016-10-03T11:33:33.971Z,170
2016-10-03T11:34:33.989Z,175
2016-10-03T11:35:34.009Z,200
2016-10-03T11:36:33.995Z,250
2016-10-03T11:38:33.977Z,195
2016-10-03T11:39:34.006Z,225
2016-10-03T11:40:33.976Z,270
2016-10-03T11:41:33.992Z,275
2016-10-03T11:42:33.969Z,230
2016-10-03T11:44:22.367Z,180
2016-10-03T11:45:01.828Z,175
2016-10-03T11:46:47.827Z,185
2016-10-03T11:48:10.549Z,205
2016-10-03T11:49:32.428Z,255
2016-10-03T11:50:49.918Z,235
2016-10-03T11:52:13.377Z,245
2016-10-03T11:53:37.314Z,265
2016-10-03T11:55:00.730Z,275
2016-10-03T11:56:22.001Z,275
2016-10-03T11:57:42.286Z,255
2016-10-03T11:59:01.940Z,255
2016-10-03T12:00:24.495Z,270
2016-10-03T12:01:47.310Z,255
2016-10-03T12:03:10.100Z,245
2016-10-03T12:04:33.082Z,210
2016-10-03T12:05:57.755Z,175
2016-10-03T12:07:14.813Z,170
2016-10-03T12:08:36.257Z,190
2016-10-03T12:09:57.643Z,230
2016-10-03T12:11:18.797Z,235
2016-10-03T12:12:43.697Z,225
2016-10-03T12:14:04.516Z,225
2016-10-03T12:15:24.634Z,230
2016-10-03T12:16:33.725Z,240
2016-10-03T12:16:44.712Z,245
2016-10-03T12:18:19.899Z,270
2016-10-03T12:19:45.285Z,290
2016-10-03T12:21:08.886Z,290
2016-10-03T12:22:30.862Z,275
2016-10-03T12:23:52.568Z,255
2016-10-03T12:25:14.103Z,245
2016-10-03T12:26:28.119Z,240
2016-10-03T12:26:38.349Z,240
2016-10-03T12:28:37.781Z,240
2016-10-03T12:30:03.870Z,240
2016-10-03T12:31:29.972Z,235
2016-10-03T12:33:00.589Z,235
2016-10-03T12:34:21.655Z,230
2016-10-03T12:35:41.800Z,215
2016-10-03T12:37:02.519Z,195
2016-10-03T12:38:23.477Z,190
2016-10-03T12:39:46.440Z,190
2016-10-03T12:41:05.672Z,190
2016-10-03T12:42:16.843Z,190
2016-10-03T12:43:25.412Z,195
2016-10-03T12:44:29.776Z,210
2016-10-03T12:45:23.252Z,215
2016-10-03T12:46:36.536Z,215
2016-10-03T12:47:53.474Z,205
2016-10-03T12:49:08.290Z,210
2016-10-03T12:50:17.186Z,225
2016-10-03T12:51:27.608Z,240
2016-10-03T12:52:38.507Z,230
2016-10-03T12:53:49.263Z,220
2016-10-03T12:54:43.930Z,195
2016-10-03T12:55:08.753Z,215
2016-10-03T12:56:09.734Z,200
2016-10-03T12:57:08.833Z,180
2016-10-03T12:58:08.812Z,170
2016-10-03T12:59:08.793Z,165
2016-10-03T13:00:08.782Z,170
2016-10-03T13:01:08.789Z,175
2016-10-03T13:02:08.837Z,195
2016-10-03T13:03:08.815Z,220
2016-10-03T13:04:08.779Z,245
2016-10-03T13:05:08.817Z,270
2016-10-03T13:06:08.780Z,295
2016-10-03T13:07:08.751Z,290
2016-10-03T13:08:08.776Z,275
2016-10-03T13:09:08.752Z,265
2016-10-03T13:10:08.788Z,255
2016-10-03T13:11:08.786Z,245
2016-10-03T13:12:08.764Z,240
2016-10-03T13:13:08.764Z,225
2016-10-03T13:14:08.778Z,210
2016-10-03T13:15:08.807Z,185
2016-10-03T13:16:08.786Z,150
2016-10-03T13:17:08.766Z,110
2016-10-03T13:18:08.766Z,85
2016-10-03T13:19:08.875Z,85
2016-10-03T13:20:08.807Z,75
2016-10-03T13:21:08.833Z,70
2016-10-03T13:22:08.821Z,60
2016-10-03T13:23:08.871Z,55
2016-10-03T13:24:08.800Z,50
2016-10-03T13:25:08.784Z,45
2016-10-03T13:26:08.821Z,45
2016-10-03T13:27:08.833Z,40
2016-10-03T13:28:08.912Z,35
2016-10-03T13:29:08.919Z,35
2016-10-03T13:30:08.855Z,30
2016-10-03T13:31:09.483Z,35
2016-10-03T13:32:08.911Z,35
2016-10-03T13:33:08.852Z,35
2016-10-03T13:34:08.802Z,40
2016-10-03T13:35:08.837Z,40
2016-10-03T13:36:08.881Z,45
2016-10-03T13:37:08.859Z,45
2016-10-03T13:38:08.860Z,50
2016-10-03T13:39:08.812Z,60
2016-10-03T13:40:08.812Z,75
2016-10-03T13:41:09.015Z,90
2016-10-03T13:42:08.846Z,95
2016-10-03T13:43:08.799Z,85
2016-10-03T13:44:08.878Z,85
2016-10-03T13:45:08.913Z,100
2016-10-03T13:46:08.831Z,110
2016-10-03T13:47:08.850Z,115
2016-10-03T13:48:08.822Z,110
2016-10-03T13:49:08.814Z,100
2016-10-03T13:50:08.831Z,90
2016-10-03T13:51:08.866Z,85
2016-10-03T13:52:08.885Z,75
2016-10-03T13:53:08.860Z,75
2016-10-03T13:54:08.879Z,75
2016-10-03T13:55:08.838Z,75
2016-10-03T13:56:08.964Z,75
2016-10-03T13:57:08.893Z,70
2016-10-03T13:58:08.874Z,75
2016-10-03T13:59:08.842Z,70
2016-10-03T14:00:08.900Z,70
2016-10-03T14:01:08.896Z,75
2016-10-03T14:02:08.861Z,85
2016-10-03T14:03:08.832Z,90
2016-10-03T14:04:08.888Z,90
2016-10-03T14:05:08.907Z,85
2016-10-03T14:06:08.908Z,70
2016-10-03T14:07:08.873Z,65
2016-10-03T14:08:08.850Z,60
2016-10-03T14:09:08.841Z,70
2016-10-03T14:10:08.878Z,85
2016-10-03T14:11:08.877Z,95
2016-10-03T14:12:08.874Z,105
2016-10-03T14:13:08.864Z,110
2016-10-03T14:14:08.813Z,105
2016-10-03T14:15:08.817Z,105
2016-10-03T14:16:08.854Z,100
2016-10-03T14:17:08.851Z,95
2016-10-03T14:18:08.887Z,100
2016-10-03T14:19:08.849Z,105
2016-10-03T14:20:08.836Z,115
2016-10-03T14:21:08.906Z,120
2016-10-03T14:22:08.851Z,105
2016-10-03T14:23:08.854Z,85
2016-10-03T14:24:08.849Z,70
2016-10-03T14:25:08.900Z,60
2016-10-03T14:26:08.892Z,65
2016-10-03T14:27:08.899Z,70
2016-10-03T14:28:08.859Z,75
2016-10-03T14:29:08.867Z,75
2016-10-03T14:30:08.891Z,75
2016-10-03T14:31:08.919Z,70
2016-10-03T14:32:08.893Z,70
2016-10-03T14:33:08.975Z,70